createdAt,value
2023-04-01T00:00:01.455Z,0
2023-04-01T00:16:03.337Z,0
2023-04-01T00:31:01.485Z,0
2023-04-01T00:46:01.464Z,0
2023-04-01T01:00:01.463Z,0
2023-04-01T01:16:01.495Z,0
2023-04-01T01:31:01.591Z,0
2023-04-01T01:46:01.543Z,0
2023-04-01T02:00:01.411Z,0
2023-04-01T02:16:01.484Z,0
2023-04-01T02:31:01.469Z,0
2023-04-01T02:46:01.441Z,0
2023-04-01T03:00:01.390Z,0
2023-04-01T03:16:01.427Z,0
2023-04-01T03:31:01.487Z,0
2023-04-01T03:46:01.499Z,0
2023-04-01T04:00:01.414Z,0
2023-04-01T04:16:01.524Z,0
2023-04-01T04:31:01.464Z,0
2023-04-01T04:46:01.415Z,0
2023-04-01T05:00:01.394Z,1
2023-04-01T05:16:01.426Z,8
2023-04-01T05:31:01.555Z,22
2023-04-01T05:46:01.404Z,42
2023-04-01T06:00:01.406Z,60
2023-04-01T06:16:01.457Z,82
2023-04-01T06:31:01.400Z,109
2023-04-01T06:46:02.293Z,125
2023-04-01T07:00:01.421Z,130
2023-04-01T07:16:01.394Z,136
2023-04-01T07:31:01.516Z,161
2023-04-01T07:46:01.438Z,241
2023-04-01T08:00:01.547Z,380
2023-04-01T08:16:01.549Z,438
2023-04-01T08:31:01.384Z,545
2023-04-01T08:46:01.409Z,375
2023-04-01T09:00:01.514Z,407
2023-04-01T09:16:01.460Z,256
2023-04-01T09:31:01.439Z,300
2023-04-01T09:46:01.602Z,604
2023-04-01T10:00:01.417Z,699
2023-04-01T10:16:01.638Z,733
2023-04-01T10:31:01.426Z,749
2023-04-01T10:46:01.434Z,765
2023-04-01T11:00:01.402Z,548
2023-04-01T11:16:01.496Z,308
2023-04-01T11:31:01.454Z,280
2023-04-01T11:46:01.393Z,258
2023-04-01T12:00:01.370Z,251
2023-04-01T12:16:01.422Z,525
2023-04-01T12:31:01.348Z,602
2023-04-01T12:46:01.410Z,517
2023-04-01T13:00:01.367Z,495
2023-04-01T13:16:01.454Z,325
2023-04-01T13:31:01.431Z,235
2023-04-01T13:46:01.625Z,153
2023-04-01T14:00:01.411Z,131
2023-04-01T14:16:01.436Z,109
2023-04-01T14:31:01.525Z,141
2023-04-01T14:46:01.418Z,182
2023-04-01T15:00:01.406Z,294
2023-04-01T15:16:01.515Z,151
2023-04-01T15:31:01.550Z,87
2023-04-01T15:46:01.429Z,68
2023-04-01T16:00:01.485Z,124
2023-04-01T16:16:01.386Z,150
2023-04-01T16:31:01.370Z,63
2023-04-01T16:46:17.384Z,65
2023-04-01T17:00:01.375Z,20
2023-04-01T17:16:01.396Z,13
2023-04-01T17:31:01.360Z,6
2023-04-01T17:46:01.371Z,0
2023-04-01T18:00:01.370Z,0
2023-04-01T18:16:01.390Z,0
2023-04-01T18:31:01.364Z,0
2023-04-01T18:46:01.480Z,0
2023-04-01T19:00:01.335Z,0
2023-04-01T19:16:01.409Z,0
2023-04-01T19:31:01.446Z,0
2023-04-01T19:46:01.372Z,0
2023-04-01T20:00:01.363Z,0
2023-04-01T20:16:01.377Z,0
2023-04-01T20:31:01.362Z,0
2023-04-01T20:46:01.352Z,0
2023-04-01T21:00:01.374Z,0
2023-04-01T21:16:01.465Z,0
2023-04-01T21:31:01.351Z,0
2023-04-01T21:46:02.154Z,0
2023-04-01T22:00:01.333Z,0
2023-04-01T22:16:01.415Z,0
2023-04-01T22:31:01.347Z,0
2023-04-01T22:46:01.422Z,0
2023-04-01T23:00:01.361Z,0
2023-04-01T23:16:01.366Z,0
2023-04-01T23:31:01.498Z,0
2023-04-01T23:46:01.423Z,0
